»·PEaware :: N6794H KSBA-KBUR

N6794H :: KSBA-KBUR

FLIGHT INFORMATION

Flight Status: Arrived
Operator: Privately registered:
United States
More flights under this callsign
Pilot: Austin B. (17780)
Aircraft: CESSNA 172 SKYHAWK
(C172)
More flights by this aircraft type
Origin: KSBA Santa Barbara Mun
United States
Destination: KBUR Bob Hope-Burbank
United States
More flights between these airports :: More routes between these airports
Route:
File this flight plan on PilotEdge
Remarks: CAT-08
Altitude:
(Current/Filed)
7,500ft
Speed:
(Current/Filed)
110kts
Departed: 08-Jan-18 05:33 PM
Arrived: 08-Jan-18 06:25 PM
Distance/Time
Traveled:
75nm/0:51
Distance/Time
To Go:
Arrived

Flight Plot

Page will automatically refresh every two minutes.


Map Options




Map Legend


Flown Route
Filed Route
Departure Airport
Arrival Airport
Navaid (VOR, NDB)
Fix

Horizontal Profiles

Position Reports

Time Latitude Longitude Heading Altitude Ground
Speed
08-Jan-18 17:23 34.432569 -119.835085 72 17ft 0kts
08-Jan-18 17:24 34.432569 -119.835085 72 17ft 0kts
08-Jan-18 17:25 34.432569 -119.835085 72 17ft 0kts
08-Jan-18 17:26 34.432569 -119.835085 72 17ft 0kts
08-Jan-18 17:27 34.432569 -119.835085 72 17ft 0kts
08-Jan-18 17:28 34.432569 -119.835085 72 17ft 0kts
08-Jan-18 17:29 34.432569 -119.835085 72 17ft 0kts
08-Jan-18 17:30 34.432569 -119.835085 72 17ft 0kts
08-Jan-18 17:31 34.432569 -119.835085 72 17ft 0kts
08-Jan-18 17:32 34.432569 -119.835085 72 17ft 0kts
08-Jan-18 17:33 34.432569 -119.835085 72 17ft 0kts
08-Jan-18 17:34 34.432319 -119.834456 207 17ft 6kts
08-Jan-18 17:35 34.431272 -119.837899 249 17ft 12kts
08-Jan-18 17:36 34.430699 -119.839787 249 17ft 0kts
08-Jan-18 17:37 34.430699 -119.839786 249 17ft 0kts
08-Jan-18 17:38 34.429573 -119.839973 164 17ft 36kts
08-Jan-18 17:39 34.409819 -119.835790 163 770ft 79kts
08-Jan-18 17:40 34.387811 -119.831253 164 1485ft 100kts
08-Jan-18 17:41 34.372685 -119.809386 102 2036ft 89kts
08-Jan-18 17:42 34.370302 -119.786302 101 3217ft 56kts
08-Jan-18 17:43 34.368196 -119.766135 103 3977ft 72kts
08-Jan-18 17:44 34.364625 -119.739292 105 4579ft 86kts
08-Jan-18 17:45 34.361274 -119.711839 106 5328ft 77kts
08-Jan-18 17:46 34.358476 -119.687503 108 6112ft 69kts
08-Jan-18 17:47 34.356031 -119.665646 111 6884ft 64kts
08-Jan-18 17:48 34.353166 -119.641830 110 7438ft 81kts
08-Jan-18 17:49 34.349169 -119.609668 109 7489ft 98kts
08-Jan-18 17:50 34.345349 -119.577428 109 7489ft 96kts
08-Jan-18 17:51 34.341629 -119.545630 109 7489ft 96kts
08-Jan-18 17:52 34.337898 -119.513616 109 7489ft 96kts
08-Jan-18 17:53 34.334175 -119.481675 109 7489ft 96kts
08-Jan-18 17:54 34.330457 -119.449827 109 7489ft 95kts
08-Jan-18 17:55 34.326729 -119.417970 109 7478ft 96kts
08-Jan-18 17:56 34.322950 -119.385759 108 7461ft 96kts
08-Jan-18 17:57 34.319308 -119.353838 107 7461ft 96kts
08-Jan-18 17:58 34.315894 -119.322001 108 7464ft 96kts
08-Jan-18 17:59 34.312234 -119.289947 108 7464ft 96kts
08-Jan-18 18:00 34.308486 -119.257891 108 7464ft 96kts
08-Jan-18 18:01 34.304701 -119.225836 108 7463ft 96kts
08-Jan-18 18:02 34.300903 -119.193832 108 7463ft 96kts
08-Jan-18 18:03 34.297096 -119.161858 108 7463ft 96kts
08-Jan-18 18:04 34.293373 -119.130574 108 7500ft 94kts
08-Jan-18 18:05 34.289567 -119.098830 108 7500ft 95kts
08-Jan-18 18:06 34.285730 -119.066850 108 7500ft 96kts
08-Jan-18 18:07 34.281883 -119.034843 108 7499ft 96kts
08-Jan-18 18:08 34.278038 -119.002928 108 7499ft 96kts
08-Jan-18 18:09 34.274190 -118.971052 108 7499ft 96kts
08-Jan-18 18:10 34.270464 -118.939118 107 7499ft 96kts
08-Jan-18 18:11 34.267028 -118.907004 108 7499ft 96kts
08-Jan-18 18:12 34.263279 -118.875160 108 7499ft 96kts
08-Jan-18 18:13 34.259417 -118.843187 108 7499ft 95kts
08-Jan-18 18:14 34.255555 -118.811381 108 7499ft 95kts
08-Jan-18 18:15 34.251692 -118.779652 108 7499ft 95kts
08-Jan-18 18:16 34.247803 -118.747774 108 7499ft 95kts
08-Jan-18 18:17 34.244060 -118.717287 110 7181ft 82kts
08-Jan-18 18:18 34.240841 -118.691605 109 6462ft 74kts
08-Jan-18 18:19 34.237822 -118.667228 107 5747ft 73kts
08-Jan-18 18:20 34.234841 -118.642979 106 5088ft 75kts
08-Jan-18 18:21 34.231179 -118.613103 103 4582ft 94kts
08-Jan-18 18:22 34.227354 -118.581990 103 4067ft 93kts
08-Jan-18 18:23 34.220080 -118.552198 111 3552ft 92kts
08-Jan-18 18:24 34.212046 -118.523697 111 3503ft 92kts
08-Jan-18 18:25 34.203625 -118.494183 111 3503ft 93kts
08-Jan-18 18:26 34.199896 -118.465895 93 3318ft 81kts
08-Jan-18 18:27 34.200366 -118.442797 98 2872ft 55kts
08-Jan-18 18:28 34.198822 -118.424196 99 2087ft 58kts
08-Jan-18 18:29 34.198451 -118.404451 95 1476ft 60kts
08-Jan-18 18:30 34.198212 -118.384105 93 1149ft 57kts
08-Jan-18 18:31 34.197867 -118.365692 92 781ft 38kts
08-Jan-18 18:32 34.197372 -118.360316 169 781ft 10kts
08-Jan-18 18:33 34.196114 -118.358795 106 781ft 5kts
08-Jan-18 18:34 34.196019 -118.358388 106 781ft 0kts

Navigation Log

Ident Type
1. KSBA Airport
2. KBUR Airport